Time;durP1;ratioP1;P1;durP2;ratioP2;P2;SDS_P1;SDS_P2;PMS_P1;PMS_P2;Temp;Humidity;BMP_temperature;BMP_pressure;BME280_temperature;BME280_humidity;BME280_pressure;Samples;Min_cycle;Max_cycle;Signal;HPM_P1;HPM_P2
2021/11/03 00:00:23;;;;;;;26.23;15.80;;;8.80;99.90;;;;;;5075787;28;20459;-83
2021/11/03 00:02:49;;;;;;;27.88;16.05;;;8.80;99.90;;;;;;5093744;28;20455;-85
2021/11/03 00:05:16;;;;;;;27.20;15.25;;;8.80;99.90;;;;;;5093631;28;20455;-83
2021/11/03 00:07:42;;;;;;;25.35;15.48;;;8.80;99.90;;;;;;5093717;28;20020;-83
2021/11/03 00:10:10;;;;;;;26.08;15.18;;;8.80;99.90;;;;;;5093592;28;20024;-84
2021/11/03 00:12:39;;;;;;;25.27;14.48;;;8.90;99.90;;;;;;5078108;28;20024;-83
2021/11/03 00:15:06;;;;;;;22.77;13.60;;;8.90;99.90;;;;;;5079853;28;20028;-84
2021/11/03 00:17:32;;;;;;;20.77;12.48;;;8.90;99.90;;;;;;5098252;28;20032;-85
2021/11/03 00:19:58;;;;;;;20.05;11.95;;;8.90;99.90;;;;;;5097918;28;20454;-84
2021/11/03 00:22:24;;;;;;;21.80;12.88;;;9.00;99.90;;;;;;5079330;28;20082;-84
2021/11/03 00:24:49;;;;;;;21.05;12.35;;;8.90;99.90;;;;;;5079718;28;20077;-84
2021/11/03 00:27:15;;;;;;;20.95;11.82;;;9.00;99.90;;;;;;5097255;28;20040;-84
2021/11/03 00:29:41;;;;;;;17.25;11.25;;;9.00;99.90;;;;;;5097611;28;20515;-84
2021/11/03 00:32:09;;;;;;;20.90;12.60;;;9.00;99.90;;;;;;5097455;28;20036;-84
2021/11/03 00:34:36;;;;;;;18.52;11.35;;;9.00;99.90;;;;;;5097490;28;20107;-85
2021/11/03 00:37:02;;;;;;;21.50;12.90;;;9.00;99.90;;;;;;5097270;28;20028;-84
2021/11/03 00:39:27;;;;;;;20.67;11.75;;;9.10;99.90;;;;;;5097797;28;20078;-84
2021/11/03 00:41:54;;;;;;;21.75;12.60;;;9.10;99.90;;;;;;5079073;28;20470;-84
2021/11/03 00:44:22;;;;;;;23.70;14.07;;;9.10;99.90;;;;;;5079107;28;20439;-84
2021/11/03 00:46:49;;;;;;;25.83;15.27;;;9.10;99.90;;;;;;5097221;28;20485;-84
2021/11/03 00:49:15;;;;;;;25.42;14.65;;;9.10;99.90;;;;;;5097334;28;20024;-84
2021/11/03 00:51:41;;;;;;;22.13;13.90;;;9.10;99.90;;;;;;5078993;28;20036;-84
2021/11/03 00:54:07;;;;;;;28.50;16.13;;;9.10;99.90;;;;;;5097591;28;20028;-85
2021/11/03 00:56:33;;;;;;;31.23;17.95;;;9.10;99.90;;;;;;5095554;28;20193;-84
2021/11/03 00:58:58;;;;;;;35.28;19.17;;;9.10;99.90;;;;;;5097189;28;20027;-84
2021/11/03 01:01:24;;;;;;;35.28;21.15;;;9.10;99.90;;;;;;5095722;28;20024;-85
2021/11/03 01:03:50;;;;;;;34.53;18.98;;;9.20;99.90;;;;;;5096998;28;20038;-84
2021/11/03 01:06:16;;;;;;;38.05;21.33;;;9.10;99.90;;;;;;5095769;28;20032;-84
2021/11/03 01:08:43;;;;;;;40.33;22.40;;;9.20;99.90;;;;;;5095878;28;20020;-85
2021/11/03 01:11:09;;;;;;;34.03;19.55;;;9.20;99.90;;;;;;5096755;28;20489;-83
2021/11/03 01:13:35;;;;;;;40.30;21.17;;;9.20;99.90;;;;;;5096690;28;20024;-84
2021/11/03 01:16:02;;;;;;;38.67;21.30;;;9.20;99.90;;;;;;5095091;28;20032;-84
2021/11/03 01:18:30;;;;;;;35.17;18.92;;;9.20;99.90;;;;;;5097167;28;20110;-85
2021/11/03 01:20:58;;;;;;;29.88;18.20;;;9.30;99.90;;;;;;5095550;28;20031;-82
2021/11/03 01:23:25;;;;;;;32.47;18.83;;;9.30;99.90;;;;;;5095854;28;20028;-85
2021/11/03 01:25:53;;;;;;;31.67;19.27;;;9.30;99.90;;;;;;5095245;28;20394;-83
2021/11/03 01:28:19;;;;;;;34.35;18.92;;;9.30;99.90;;;;;;5095145;28;20062;-83
2021/11/03 01:30:46;;;;;;;35.13;19.05;;;9.30;99.90;;;;;;5094563;28;20020;-84
2021/11/03 01:33:14;;;;;;;31.00;19.30;;;9.30;99.90;;;;;;5095104;28;20111;-84
2021/11/03 01:35:40;;;;;;;30.92;19.42;;;9.40;99.90;;;;;;5094935;28;20170;-84
2021/11/03 01:38:06;;;;;;;31.05;18.60;;;9.30;99.90;;;;;;5094968;28;20451;-81
2021/11/03 01:40:35;;;;;;;28.60;18.20;;;9.40;99.90;;;;;;5096401;28;20071;-84
2021/11/03 01:43:01;;;;;;;27.63;16.95;;;9.40;99.90;;;;;;5094880;28;20027;-84
2021/11/03 01:45:29;;;;;;;24.88;15.90;;;9.30;99.90;;;;;;5096164;28;20086;-81
2021/11/03 01:47:58;;;;;;;27.45;16.85;;;9.40;99.90;;;;;;5096294;28;20039;-82
2021/11/03 01:50:53;;;;;;;27.98;16.98;;;9.40;99.90;;;;;;5095826;28;20032;-81
2021/11/03 01:53:26;;;;;;;29.00;18.10;;;9.40;99.90;;;;;;5094490;28;20030;-81
2021/11/03 01:56:04;;;;;;;24.58;16.23;;;9.40;99.90;;;;;;5094911;28;20052;-81
2021/11/03 01:58:55;;;;;;;26.38;14.60;;;9.50;99.90;;;;;;5096029;28;20027;-82
2021/11/03 02:01:21;;;;;;;27.52;17.45;;;9.40;99.90;;;;;;5094867;28;20527;-82
2021/11/03 02:03:49;;;;;;;27.55;16.63;;;9.50;99.90;;;;;;5095623;28;20032;-82
2021/11/03 02:06:18;;;;;;;31.55;19.60;;;9.50;99.90;;;;;;5094697;28;20035;-82
2021/11/03 02:08:45;;;;;;;29.55;17.10;;;9.50;99.90;;;;;;5094823;28;20024;-83
2021/11/03 02:11:13;;;;;;;32.30;18.13;;;9.50;99.90;;;;;;5094618;28;20504;-82
2021/11/03 02:13:41;;;;;;;29.58;18.38;;;9.50;99.90;;;;;;5094705;28;20016;-82
2021/11/03 02:16:12;;;;;;;32.95;19.15;;;9.50;99.90;;;;;;5095753;28;20055;-81
2021/11/03 02:18:39;;;;;;;35.58;19.90;;;9.60;99.90;;;;;;5094509;28;20043;-81
2021/11/03 02:21:07;;;;;;;38.25;21.02;;;9.50;99.90;;;;;;5095624;28;20028;-82
2021/11/03 02:23:38;;;;;;;37.80;22.20;;;9.60;99.90;;;;;;5095252;28;20016;-81
2021/11/03 02:26:28;;;;;;;41.13;22.17;;;9.60;99.90;;;;;;5094289;28;20028;-81
2021/11/03 02:28:55;;;;;;;34.47;18.95;;;9.60;99.90;;;;;;5095346;28;20024;-81
2021/11/03 02:31:38;;;;;;;36.28;20.23;;;9.60;99.90;;;;;;5094063;28;20127;-82
2021/11/03 02:34:07;;;;;;;32.13;17.50;;;9.60;99.90;;;;;;5095133;28;20103;-82
2021/11/03 02:36:34;;;;;;;32.47;18.27;;;9.60;99.90;;;;;;5094260;28;20028;-83
2021/11/03 02:39:07;;;;;;;33.42;17.60;;;9.60;99.90;;;;;;5095499;28;20043;-82
2021/11/03 02:41:35;;;;;;;31.65;17.52;;;9.60;99.90;;;;;;5095708;28;20077;-82
2021/11/03 02:44:14;;;;;;;31.42;18.25;;;9.60;99.90;;;;;;5093718;28;20031;-83
2021/11/03 02:46:40;;;;;;;31.08;19.33;;;9.70;99.90;;;;;;5094008;28;20028;-82
2021/11/03 02:49:06;;;;;;;34.28;21.27;;;9.60;99.90;;;;;;5093786;28;20028;-83
2021/11/03 02:51:39;;;;;;;38.65;22.98;;;9.70;99.90;;;;;;5092922;28;20021;-84
2021/11/03 02:54:25;;;;;;;40.85;23.52;;;9.70;99.90;;;;;;5094389;28;20024;-83
2021/11/03 02:56:53;;;;;;;38.63;20.92;;;9.70;99.90;;;;;;5092751;28;20080;-84
2021/11/03 02:59:22;;;;;;;34.55;19.15;;;9.70;99.90;;;;;;5076601;28;20028;-83
2021/11/03 03:01:52;;;;;;;33.90;19.02;;;9.70;99.90;;;;;;5093467;28;20042;-83
2021/11/03 03:04:22;;;;;;;35.17;20.42;;;9.70;99.90;;;;;;5092930;28;20081;-83
2021/11/03 03:06:48;;;;;;;33.40;19.95;;;9.70;99.90;;;;;;5093806;28;20063;-83
2021/11/03 03:09:16;;;;;;;37.15;19.92;;;9.70;99.90;;;;;;5094322;28;20028;-83
2021/11/03 03:11:46;;;;;;;33.42;19.38;;;9.80;99.90;;;;;;5094384;28;20107;-83
2021/11/03 03:14:16;;;;;;;;;;;9.80;99.90;;;;;;5093265;28;20024;-82
2021/11/03 03:16:43;;;;;;;31.27;17.95;;;9.70;99.90;;;;;;5092784;28;19916;-83
2021/11/03 03:19:09;;;;;;;30.50;17.73;;;9.70;99.90;;;;;;5092869;28;20039;-83
2021/11/03 03:21:36;;;;;;;28.15;17.23;;;9.70;99.90;;;;;;5094625;28;20032;-83
2021/11/03 03:24:03;;;;;;;26.77;15.75;;;9.70;99.90;;;;;;5093932;28;20051;-83
2021/11/03 03:26:30;;;;;;;28.08;17.30;;;9.70;99.90;;;;;;5092947;28;20028;-83
2021/11/03 03:28:56;;;;;;;27.50;16.40;;;9.70;99.90;;;;;;5094090;28;20047;-83
2021/11/03 03:31:24;;;;;;;30.13;18.58;;;9.80;99.90;;;;;;5093062;28;20032;-83
2021/11/03 03:33:50;;;;;;;33.47;20.25;;;9.80;99.90;;;;;;5094300;28;20032;-85
2021/11/03 03:36:17;;;;;;;32.38;19.30;;;9.80;99.90;;;;;;5092851;28;20028;-81
2021/11/03 03:38:43;;;;;;;29.25;18.48;;;9.80;99.90;;;;;;5094169;28;20031;-85
2021/11/03 03:41:10;;;;;;;33.40;19.17;;;9.80;99.90;;;;;;5092621;28;20123;-84
2021/11/03 03:43:36;;;;;;;34.83;18.45;;;9.80;99.90;;;;;;5094117;28;20032;-84
2021/11/03 03:46:02;;;;;;;30.30;18.52;;;9.80;99.90;;;;;;5092364;28;20038;-83
2021/11/03 03:48:28;;;;;;;28.55;17.20;;;9.80;99.90;;;;;;5092912;28;20381;-83
2021/11/03 03:50:54;;;;;;;35.45;20.77;;;9.90;99.90;;;;;;5094331;28;20107;-81
2021/11/03 03:53:21;;;;;;;34.42;20.35;;;9.90;99.90;;;;;;5092428;28;20020;-82
2021/11/03 03:55:48;;;;;;;34.85;19.90;;;9.90;99.90;;;;;;5093827;28;20055;-82
2021/11/03 03:58:17;;;;;;;45.70;25.20;;;9.90;99.90;;;;;;5094000;28;20048;-82
2021/11/03 04:00:44;;;;;;;52.80;28.60;;;10.00;99.90;;;;;;5094003;28;20039;-83
2021/11/03 04:03:10;;;;;;;56.28;30.23;;;10.00;99.90;;;;;;5093851;28;20024;-83
2021/11/03 04:05:36;;;;;;;57.90;31.17;;;10.00;99.90;;;;;;5092270;28;20093;-82
2021/11/03 04:08:03;;;;;;;60.35;31.20;;;10.00;99.90;;;;;;5093348;28;20028;-82
2021/11/03 04:10:29;;;;;;;68.50;35.42;;;10.00;99.90;;;;;;5092766;28;20420;-82
2021/11/03 04:12:55;;;;;;;63.42;32.47;;;10.00;99.90;;;;;;5075337;28;20024;-82
2021/11/03 04:15:21;;;;;;;77.57;37.42;;;10.00;99.90;;;;;;5095793;28;20020;-82
2021/11/03 04:17:48;;;;;;;83.90;40.20;;;10.00;99.90;;;;;;5096089;28;20028;-82
2021/11/03 04:20:16;;;;;;;71.93;35.58;;;10.00;99.90;;;;;;5096770;28;20039;-82
2021/11/03 04:22:43;;;;;;;60.38;31.63;;;10.00;99.90;;;;;;5093069;28;20043;-82
2021/11/03 04:25:13;;;;;;;59.63;31.60;;;10.00;99.90;;;;;;5092406;28;20111;-82
2021/11/03 04:27:40;;;;;;;50.35;28.65;;;10.00;99.90;;;;;;5093689;28;20036;-83
2021/11/03 04:30:09;;;;;;;43.72;26.17;;;10.10;99.90;;;;;;5094042;28;20027;-83
2021/11/03 04:32:35;;;;;;;48.67;27.30;;;10.00;99.90;;;;;;5093212;28;20488;-83
2021/11/03 04:35:00;;;;;;;48.90;27.65;;;10.00;99.90;;;;;;5075526;28;20024;-83
2021/11/03 04:37:26;;;;;;;43.20;25.08;;;10.00;99.90;;;;;;5093448;28;20455;-84
2021/11/03 04:39:52;;;;;;;50.08;26.98;;;10.00;99.90;;;;;;5091987;28;20134;-82
2021/11/03 04:42:19;;;;;;;51.25;26.60;;;10.10;99.90;;;;;;5075628;28;20028;-82
2021/11/03 04:44:45;;;;;;;46.15;24.25;;;10.10;99.90;;;;;;5075340;28;20058;-82
2021/11/03 04:47:11;;;;;;;38.75;20.90;;;10.00;99.90;;;;;;5093439;28;20442;-83
2021/11/03 04:49:37;;;;;;;32.22;19.05;;;10.00;99.90;;;;;;5093426;28;20520;-83
2021/11/03 04:52:03;;;;;;;32.22;19.95;;;10.00;99.90;;;;;;5094012;28;20032;-83
2021/11/03 04:54:29;;;;;;;32.90;19.88;;;10.10;99.90;;;;;;5093120;28;20069;-82
2021/11/03 04:56:55;;;;;;;36.72;20.73;;;10.00;99.90;;;;;;5091739;28;20443;-82
2021/11/03 04:59:20;;;;;;;32.92;19.58;;;10.10;99.90;;;;;;5095081;28;20030;-85
2021/11/03 05:01:46;;;;;;;33.13;19.67;;;10.10;99.90;;;;;;5095531;28;20154;-85
2021/11/03 05:04:12;;;;;;;40.92;22.42;;;10.10;99.90;;;;;;5095235;28;20038;-85
2021/11/03 05:06:41;;;;;;;38.67;21.85;;;10.10;99.90;;;;;;5096636;28;20040;-84
2021/11/03 05:09:08;;;;;;;40.45;24.17;;;10.10;99.90;;;;;;5094911;28;20027;-83
2021/11/03 05:11:36;;;;;;;38.78;24.00;;;10.10;99.90;;;;;;5095761;28;20024;-83
2021/11/03 05:14:02;;;;;;;44.85;24.48;;;10.20;99.90;;;;;;5095797;28;20077;-83
2021/11/03 05:16:28;;;;;;;40.88;24.48;;;10.20;99.90;;;;;;5095060;28;20039;-83
2021/11/03 05:18:55;;;;;;;49.22;27.92;;;10.20;99.90;;;;;;5095259;28;20031;-82
2021/11/03 05:21:21;;;;;;;48.60;28.33;;;10.20;99.90;;;;;;5096208;28;20020;-84
2021/11/03 05:23:48;;;;;;;59.42;33.50;;;10.20;99.90;;;;;;5096492;28;20455;-84
2021/11/03 05:26:19;;;;;;;57.78;32.58;;;10.20;99.90;;;;;;5094888;28;20028;-83
2021/11/03 05:28:48;;;;;;;61.47;33.15;;;10.30;99.90;;;;;;5096585;28;20024;-82
2021/11/03 05:31:14;;;;;;;62.60;33.65;;;10.30;99.90;;;;;;5095888;28;20048;-84
2021/11/03 05:33:40;;;;;;;72.32;39.60;;;10.30;99.90;;;;;;5087782;28;20067;-84
2021/11/03 05:36:06;;;;;;;62.47;34.95;;;10.30;99.90;;;;;;5094085;28;20032;-84
2021/11/03 05:38:32;;;;;;;57.58;31.10;;;10.30;99.90;;;;;;5095892;28;20024;-81
2021/11/03 05:40:58;;;;;;;62.33;33.42;;;10.30;99.90;;;;;;5095843;28;20035;-83
2021/11/03 05:43:23;;;;;;;64.10;34.95;;;10.40;99.90;;;;;;5094397;28;20103;-85
2021/11/03 05:45:50;;;;;;;58.65;32.25;;;10.40;99.90;;;;;;5094600;28;20028;-83
2021/11/03 05:48:17;;;;;;;63.42;34.53;;;10.40;99.90;;;;;;5095715;28;20032;-84
2021/11/03 05:50:43;;;;;;;59.65;32.17;;;10.40;99.90;;;;;;5094980;28;20088;-84
2021/11/03 05:53:08;;;;;;;64.05;35.63;;;10.40;99.90;;;;;;5094449;28;20466;-89
2021/11/03 05:55:36;;;;;;;67.82;37.08;;;10.40;99.90;;;;;;5095511;28;20063;-90
2021/11/03 05:58:04;;;;;;;76.07;39.63;;;10.40;99.90;;;;;;5096646;28;20020;-90
2021/11/03 06:00:36;;;;;;;79.53;44.42;;;10.50;99.90;;;;;;5095415;28;20020;-88
2021/11/03 06:03:01;;;;;;;86.85;51.10;;;10.50;99.90;;;;;;5096172;28;20107;-83
2021/11/03 06:05:29;;;;;;;86.93;51.00;;;10.50;99.90;;;;;;5094354;28;20115;-83
2021/11/03 06:07:58;;;;;;;82.00;49.17;;;10.50;99.90;;;;;;5094354;28;20027;-84
2021/11/03 06:10:28;;;;;;;78.80;45.00;;;10.50;99.90;;;;;;5095953;28;20459;-84
2021/11/03 06:12:54;;;;;;;;;;;10.50;99.90;;;;;;5078002;28;20118;-87
2021/11/03 06:15:22;;;;;;;74.18;39.85;;;10.50;99.90;;;;;;5094555;28;20362;-85
2021/11/03 06:17:51;;;;;;;75.28;41.20;;;10.50;99.90;;;;;;5095798;28;20446;-85
2021/11/03 06:20:18;;;;;;;65.85;37.22;;;10.60;99.90;;;;;;5094178;28;20039;-84
2021/11/03 06:22:44;;;;;;;74.18;40.30;;;10.60;99.90;;;;;;5093976;28;20425;-82
2021/11/03 06:25:11;;;;;;;75.22;40.25;;;10.60;99.90;;;;;;5093382;28;20074;-83
2021/11/03 06:27:37;;;;;;;82.38;44.35;;;10.60;99.90;;;;;;5094360;28;20500;-84
2021/11/03 06:30:04;;;;;;;101.88;54.65;;;10.70;99.90;;;;;;5094152;28;20024;-84
2021/11/03 06:32:30;;;;;;;112.40;58.03;;;10.70;99.90;;;;;;5094838;28;20035;-85
2021/11/03 06:34:57;;;;;;;126.43;65.50;;;10.70;99.90;;;;;;5094909;28;20068;-85
2021/11/03 06:37:24;;;;;;;105.47;53.88;;;10.70;99.90;;;;;;5093743;28;20032;-86
2021/11/03 06:39:49;;;;;;;84.15;43.55;;;10.70;99.90;;;;;;5095229;28;20082;-87
2021/11/03 06:42:17;;;;;;;70.35;36.97;;;10.70;99.90;;;;;;5093179;28;20024;-88
2021/11/03 06:44:42;;;;;;;56.50;32.40;;;10.70;99.90;;;;;;5093962;28;20032;-84
2021/11/03 06:47:08;;;;;;;48.70;28.20;;;10.70;99.90;;;;;;5095431;28;20078;-84
2021/11/03 06:49:34;;;;;;;46.45;27.50;;;10.70;99.90;;;;;;5094599;28;20036;-88
2021/11/03 06:52:00;;;;;;;42.47;24.77;;;10.80;99.90;;;;;;5094793;28;20024;-90
2021/11/03 06:54:26;;;;;;;36.55;22.08;;;10.80;99.90;;;;;;5093329;28;20036;-87
2021/11/03 06:56:53;;;;;;;35.60;20.75;;;10.80;99.90;;;;;;5093144;28;20114;-84
2021/11/03 06:59:19;;;;;;;38.40;22.95;;;10.90;99.90;;;;;;5091990;28;20020;-82
2021/11/03 07:01:46;;;;;;;38.22;22.13;;;10.90;99.90;;;;;;5094606;28;20028;-81
2021/11/03 07:04:14;;;;;;;38.70;22.45;;;10.90;99.90;;;;;;5095077;28;20028;-82
2021/11/03 07:06:41;;;;;;;36.80;21.85;;;10.90;99.90;;;;;;5096240;28;20038;-89
2021/11/03 07:09:08;;;;;;;34.25;21.27;;;10.90;99.90;;;;;;5095520;28;20031;-87
2021/11/03 07:11:35;;;;;;;30.13;19.63;;;11.00;99.90;;;;;;5092813;28;20035;-87
2021/11/03 07:14:01;;;;;;;37.53;22.48;;;11.00;99.90;;;;;;5091790;28;20081;-83
2021/11/03 07:16:27;;;;;;;34.35;21.73;;;11.00;99.90;;;;;;5091004;28;20033;-85
2021/11/03 07:18:53;;;;;;;30.35;19.65;;;11.00;99.90;;;;;;5090681;28;20060;-83
2021/11/03 07:21:20;;;;;;;32.45;19.35;;;11.00;99.90;;;;;;5092182;28;20063;-85
2021/11/03 07:23:45;;;;;;;30.23;18.60;;;11.00;99.90;;;;;;5090617;28;20028;-84
2021/11/03 07:26:13;;;;;;;29.63;18.02;;;11.00;99.90;;;;;;5091935;28;20146;-83
2021/11/03 07:28:39;;;;;;;34.88;20.75;;;11.00;99.90;;;;;;5091861;28;20016;-84
2021/11/03 07:31:06;;;;;;;36.47;21.80;;;11.00;99.90;;;;;;5091315;28;20024;-84
2021/11/03 07:33:32;;;;;;;38.50;23.08;;;11.10;99.90;;;;;;5091574;28;20044;-84
2021/11/03 07:35:58;;;;;;;40.17;23.73;;;11.10;99.90;;;;;;5092280;28;20051;-83
2021/11/03 07:38:24;;;;;;;38.05;22.70;;;11.00;99.90;;;;;;5091775;28;20024;-83
2021/11/03 07:40:54;;;;;;;42.67;25.52;;;11.10;99.90;;;;;;5092751;28;20024;-83
2021/11/03 07:43:22;;;;;;;48.38;28.55;;;11.10;99.90;;;;;;5092514;28;20025;-84
2021/11/03 07:45:50;;;;;;;39.40;23.92;;;11.00;99.90;;;;;;5094233;28;20035;-83
2021/11/03 07:48:16;;;;;;;37.70;23.17;;;11.00;99.90;;;;;;5092778;28;20024;-83
2021/11/03 07:50:48;;;;;;;37.50;22.85;;;11.00;99.90;;;;;;5092440;28;20126;-84
2021/11/03 07:53:15;;;;;;;41.88;24.77;;;11.00;99.90;;;;;;5092313;28;20424;-83
2021/11/03 07:55:45;;;;;;;42.95;26.05;;;11.10;99.90;;;;;;5092276;28;20048;-83
2021/11/03 07:58:18;;;;;;;49.15;28.15;;;11.00;99.90;;;;;;5092448;28;20077;-83
2021/11/03 08:00:43;;;;;;;40.58;24.05;;;11.10;99.90;;;;;;5092535;28;20048;-84
2021/11/03 08:03:09;;;;;;;36.42;22.95;;;11.10;99.90;;;;;;5092511;28;20067;-85
2021/11/03 08:05:36;;;;;;;32.58;20.88;;;11.10;99.90;;;;;;5092809;28;20031;-84
2021/11/03 08:08:07;;;;;;;30.92;19.85;;;11.20;99.90;;;;;;5092440;28;20028;-84
2021/11/03 08:10:32;;;;;;;33.00;19.65;;;11.20;99.90;;;;;;5093702;28;20129;-84
2021/11/03 08:12:59;;;;;;;31.60;18.92;;;11.30;99.90;;;;;;5093581;28;20024;-84
2021/11/03 08:15:26;;;;;;;29.52;18.10;;;11.30;99.90;;;;;;5093370;28;20348;-84
2021/11/03 08:17:54;;;;;;;29.50;19.00;;;11.30;99.90;;;;;;5093555;28;20036;-84
2021/11/03 08:20:24;;;;;;;34.55;21.48;;;11.40;99.90;;;;;;5092431;28;20440;-83
2021/11/03 08:22:50;;;;;;;33.72;19.90;;;11.40;99.90;;;;;;5092918;28;20028;-84
2021/11/03 08:25:16;;;;;;;29.85;18.33;;;11.40;99.90;;;;;;5092255;28;20485;-83
2021/11/03 08:27:42;;;;;;;24.98;16.58;;;11.40;99.90;;;;;;5093918;28;20481;-83
2021/11/03 08:30:10;;;;;;;28.02;16.88;;;11.40;99.90;;;;;;5093488;28;20024;-83
2021/11/03 08:32:41;;;;;;;31.95;18.88;;;11.50;99.90;;;;;;5092890;28;20085;-83
2021/11/03 08:35:09;;;;;;;25.50;15.98;;;11.50;99.90;;;;;;5096390;28;20028;-84
2021/11/03 08:37:37;;;;;;;25.23;15.68;;;11.50;99.90;;;;;;5095930;28;20035;-84
2021/11/03 08:40:06;;;;;;;26.40;16.80;;;11.60;99.90;;;;;;5095872;28;20093;-84
2021/11/03 08:42:32;;;;;;;26.35;15.93;;;11.60;99.90;;;;;;5096190;28;20028;-84
2021/11/03 08:44:58;;;;;;;24.05;15.32;;;11.60;99.90;;;;;;5098698;28;20028;-84
2021/11/03 08:47:24;;;;;;;23.63;14.18;;;11.70;99.90;;;;;;5097484;28;20092;-84
2021/11/03 08:49:51;;;;;;;20.67;12.95;;;11.70;99.90;;;;;;5096063;28;20024;-82
2021/11/03 08:52:18;;;;;;;21.63;14.05;;;11.70;99.90;;;;;;5097195;28;20032;-85
2021/11/03 08:54:45;;;;;;;24.20;14.93;;;11.70;99.90;;;;;;5096078;28;20025;-82
2021/11/03 08:57:13;;;;;;;26.35;16.20;;;11.70;99.90;;;;;;5095819;28;20048;-81
2021/11/03 08:59:39;;;;;;;23.58;15.50;;;11.70;99.90;;;;;;5096238;28;20028;-82
2021/11/03 09:02:05;;;;;;;26.25;16.15;;;11.70;99.90;;;;;;5095961;28;20027;-82
2021/11/03 09:04:32;;;;;;;26.00;15.38;;;11.70;99.90;;;;;;5095982;28;20021;-83
2021/11/03 09:06:58;;;;;;;25.13;15.73;;;11.80;99.90;;;;;;5095773;28;20039;-83
2021/11/03 09:09:25;;;;;;;23.23;14.80;;;11.70;99.90;;;;;;5096815;28;20024;-83
2021/11/03 09:11:51;;;;;;;24.73;15.30;;;11.80;99.90;;;;;;5096788;28;20020;-83
2021/11/03 09:14:21;;;;;;;24.48;15.00;;;11.80;99.90;;;;;;5096703;28;20030;-83
2021/11/03 09:16:49;;;;;;;23.30;15.50;;;11.80;99.90;;;;;;5095380;28;20051;-83
2021/11/03 09:19:15;;;;;;;25.70;16.25;;;11.80;99.90;;;;;;5095744;28;20122;-83
2021/11/03 09:21:40;;;;;;;25.23;17.38;;;11.90;99.90;;;;;;5095287;28;20024;-83
2021/11/03 09:24:06;;;;;;;25.98;16.98;;;11.80;99.90;;;;;;5096663;28;20031;-83
2021/11/03 09:26:32;;;;;;;24.42;16.08;;;11.80;99.90;;;;;;5095162;28;20028;-84
2021/11/03 09:28:59;;;;;;;25.90;17.17;;;11.80;99.90;;;;;;5096364;28;20457;-83
2021/11/03 09:31:26;;;;;;;26.55;15.85;;;11.80;99.90;;;;;;5096441;28;20030;-83
2021/11/03 09:33:52;;;;;;;27.85;18.13;;;11.90;99.90;;;;;;5095011;28;20397;-83
2021/11/03 09:36:21;;;;;;;26.67;18.45;;;11.80;99.90;;;;;;5096370;28;20123;-83
2021/11/03 09:38:49;;;;;;;26.38;17.95;;;11.80;99.90;;;;;;5094985;28;20020;-83
2021/11/03 09:41:23;;;;;;;27.48;17.77;;;11.80;99.90;;;;;;5095753;28;20401;-83
2021/11/03 09:43:55;;;;;;;28.65;18.33;;;11.90;99.90;;;;;;5094888;28;20024;-84
2021/11/03 09:46:29;;;;;;;33.25;20.55;;;11.80;99.90;;;;;;5095656;28;20046;-84
2021/11/03 09:49:35;;;;;;;34.45;22.05;;;11.80;99.90;;;;;;5095077;28;20462;-83
2021/11/03 09:52:19;;;;;;;40.50;25.00;;;11.80;99.90;;;;;;5096270;28;20137;-83
2021/11/03 09:54:48;;;;;;;42.30;25.48;;;11.80;99.90;;;;;;5094734;28;20020;-83
2021/11/03 09:57:35;;;;;;;42.75;25.48;;;11.80;99.90;;;;;;5096012;28;20440;-84
2021/11/03 10:00:07;;;;;;;46.03;26.38;;;11.70;99.90;;;;;;5096266;28;20024;-84
2021/11/03 10:02:50;;;;;;;47.55;27.67;;;11.70;99.90;;;;;;5094692;28;20027;-83
2021/11/03 10:05:43;;;;;;;46.67;27.25;;;11.70;99.90;;;;;;5094659;28;20101;-84
2021/11/03 10:08:22;;;;;;;50.38;26.77;;;11.70;99.90;;;;;;5095501;28;20032;-83
2021/11/03 10:10:55;;;;;;;45.15;25.83;;;11.70;99.90;;;;;;5094773;28;20038;-82
2021/11/03 10:13:22;;;;;;;52.55;28.20;;;11.70;99.90;;;;;;5096021;28;20048;-84
2021/11/03 10:16:14;;;;;;;51.38;26.88;;;11.70;99.90;;;;;;5095054;28;20123;-85
2021/11/03 10:18:57;;;;;;;37.40;22.05;;;11.70;99.90;;;;;;5095383;28;20071;-82
2021/11/03 10:21:25;;;;;;;37.72;20.20;;;11.70;99.90;;;;;;5094354;28;20077;-83
2021/11/03 10:24:12;;;;;;;28.17;17.38;;;11.60;99.90;;;;;;5094192;28;20077;-84
2021/11/03 10:26:52;;;;;;;23.40;13.98;;;11.70;99.90;;;;;;5095940;28;20077;-83
2021/11/03 10:29:51;;;;;;;20.63;12.25;;;11.70;99.90;;;;;;5095548;28;20028;-84
2021/11/03 10:32:31;;;;;;;25.70;14.73;;;11.70;99.90;;;;;;5093951;28;20081;-83
2021/11/03 10:35:21;;;;;;;28.77;17.13;;;11.70;99.90;;;;;;5094605;28;20051;-83
2021/11/03 10:37:51;;;;;;;25.35;15.10;;;11.70;99.90;;;;;;5095865;28;20048;-83
2021/11/03 10:40:23;;;;;;;26.67;16.33;;;11.80;99.90;;;;;;5096675;28;20066;-83
2021/11/03 10:42:54;;;;;;;25.70;15.85;;;11.80;99.90;;;;;;5095343;28;20060;-84
2021/11/03 10:45:22;;;;;;;;;;;11.80;99.90;;;;;;5094676;28;20024;-83
2021/11/03 10:48:09;;;;;;;27.88;16.92;;;11.80;99.90;;;;;;5094770;28;20376;-83
2021/11/03 10:50:56;;;;;;;25.33;15.18;;;11.80;99.90;;;;;;5093694;28;20028;-83
2021/11/03 10:53:44;;;;;;;25.77;15.70;;;11.90;99.90;;;;;;5076288;28;20032;-84
2021/11/03 10:56:12;;;;;;;21.25;13.38;;;12.00;99.90;;;;;;5092855;28;20093;-84
2021/11/03 10:58:50;;;;;;;20.77;13.05;;;12.00;99.90;;;;;;5093588;28;20099;-83
2021/11/03 11:01:28;;;;;;;16.95;10.98;;;12.10;99.90;;;;;;5093270;28;20510;-83
2021/11/03 11:04:06;;;;;;;16.77;10.82;;;12.10;99.90;;;;;;5093188;28;20375;-83
2021/11/03 11:06:47;;;;;;;23.10;14.70;;;12.20;99.90;;;;;;5093350;28;20032;-84
2021/11/03 11:09:32;;;;;;;25.88;16.25;;;12.20;99.90;;;;;;5095234;28;20455;-85
2021/11/03 11:12:04;;;;;;;27.35;16.38;;;12.20;99.90;;;;;;5093256;28;20420;-83
2021/11/03 11:14:52;;;;;;;21.02;13.63;;;12.20;99.90;;;;;;5094552;28;20020;-83
2021/11/03 11:17:24;;;;;;;17.95;12.55;;;12.30;99.90;;;;;;5080261;28;20139;-83
2021/11/03 11:20:06;;;;;;;21.23;13.07;;;12.30;99.90;;;;;;5093110;28;20060;-84
2021/11/03 11:22:54;;;;;;;17.60;12.38;;;12.30;99.90;;;;;;5092931;28;20027;-84
2021/11/03 11:25:41;;;;;;;16.35;11.32;;;12.40;99.90;;;;;;5092913;28;20466;-84
2021/11/03 11:28:37;;;;;;;14.75;10.50;;;12.30;99.90;;;;;;5094168;28;20024;-84
2021/11/03 11:31:15;;;;;;;16.45;11.52;;;12.30;99.90;;;;;;5093090;28;20027;-83
2021/11/03 11:34:08;;;;;;;17.23;11.93;;;12.30;99.90;;;;;;5093016;28;20024;-83
2021/11/03 11:36:59;;;;;;;14.35;10.18;;;12.30;99.90;;;;;;5092823;28;20040;-83
2021/11/03 11:39:43;;;;;;;;;;;12.30;99.90;;;;;;5096549;28;20024;-82
2021/11/03 11:42:14;;;;;;;15.40;10.38;;;12.30;99.90;;;;;;5093403;28;19904;-83
2021/11/03 11:44:51;;;;;;;14.27;10.02;;;12.30;99.90;;;;;;5092744;28;20024;-83
2021/11/03 11:47:32;;;;;;;16.35;10.73;;;12.30;99.90;;;;;;5093901;28;20099;-83
2021/11/03 11:49:58;;;;;;;14.40;8.70;;;12.40;99.90;;;;;;5092675;28;20123;-83
2021/11/03 11:52:28;;;;;;;12.45;8.27;;;12.40;99.90;;;;;;5092424;28;20158;-83
2021/11/03 11:55:13;;;;;;;11.70;8.63;;;12.40;99.90;;;;;;5092495;28;20097;-83
2021/11/03 11:57:40;;;;;;;11.50;7.97;;;12.40;99.90;;;;;;5093863;28;20123;-85
2021/11/03 12:00:09;;;;;;;11.50;7.80;;;12.50;99.90;;;;;;5095579;28;20028;-83
2021/11/03 12:02:49;;;;;;;10.55;7.75;;;12.50;99.90;;;;;;5094949;28;20103;-82
2021/11/03 12:05:21;;;;;;;13.48;9.30;;;12.60;99.90;;;;;;5094005;28;20024;-83
2021/11/03 12:08:44;;;;;;;14.13;8.68;;;12.60;99.90;;;;;;5092081;28;20039;-83
2021/11/03 12:11:50;;;;;;;13.68;9.05;;;12.60;99.90;;;;;;5011536;28;20060;-83
2021/11/03 12:14:41;;;;;;;12.93;7.90;;;12.70;99.90;;;;;;5074988;28;20085;-83
2021/11/03 12:17:17;;;;;;;12.15;7.60;;;12.70;99.90;;;;;;5092712;28;20040;-83
2021/11/03 12:19:49;;;;;;;10.90;7.85;;;12.70;99.90;;;;;;5092390;28;20043;-83
2021/11/03 12:22:30;;;;;;;13.02;8.57;;;12.70;99.90;;;;;;5092424;28;20035;-83
2021/11/03 12:25:18;;;;;;;16.63;9.25;;;12.80;99.90;;;;;;5092613;28;20021;-83
2021/11/03 12:27:45;;;;;;;17.67;10.63;;;12.70;99.90;;;;;;5092797;28;20456;-83
2021/11/03 12:30:15;;;;;;;15.18;10.02;;;12.70;99.90;;;;;;5094374;28;20036;-83
2021/11/03 12:32:43;;;;;;;16.92;10.48;;;12.60;99.90;;;;;;5092631;28;20424;-84
2021/11/03 12:35:18;;;;;;;16.38;10.57;;;12.60;99.90;;;;;;5093306;28;20051;-84
2021/11/03 12:37:53;;;;;;;16.80;9.93;;;12.60;99.90;;;;;;5092543;28;20054;-83
2021/11/03 12:40:31;;;;;;;18.13;10.93;;;12.60;99.90;;;;;;5092330;28;20032;-83
2021/11/03 12:43:29;;;;;;;19.63;10.93;;;12.60;99.90;;;;;;5092529;28;20111;-83
2021/11/03 12:46:21;;;;;;;14.98;10.20;;;12.60;99.90;;;;;;5093550;28;20024;-83